sensor_id;sensor_type;location;lat;lon;timestamp;temperature;humidity
18694;DHT22;9477;51.414;10.362;2022-10-31T00:01:01;18.80;77.70
18694;DHT22;9477;51.414;10.362;2022-10-31T00:03:04;18.80;77.90
18694;DHT22;9477;51.414;10.362;2022-10-31T00:05:08;18.80;77.90
18694;DHT22;9477;51.414;10.362;2022-10-31T00:07:11;18.80;78.10
18694;DHT22;9477;51.414;10.362;2022-10-31T00:09:15;18.70;78.00
18694;DHT22;9477;51.414;10.362;2022-10-31T00:11:34;18.40;78.20
18694;DHT22;9477;51.414;10.362;2022-10-31T00:13:42;18.50;78.90
18694;DHT22;9477;51.414;10.362;2022-10-31T00:15:47;18.40;78.50
18694;DHT22;9477;51.414;10.362;2022-10-31T00:17:53;18.30;78.60
18694;DHT22;9477;51.414;10.362;2022-10-31T00:20:00;18.20;78.70
18694;DHT22;9477;51.414;10.362;2022-10-31T00:22:03;18.20;78.90
18694;DHT22;9477;51.414;10.362;2022-10-31T00:24:07;18.20;79.00
18694;DHT22;9477;51.414;10.362;2022-10-31T00:26:10;18.20;79.10
18694;DHT22;9477;51.414;10.362;2022-10-31T00:28:14;18.30;78.90
18694;DHT22;9477;51.414;10.362;2022-10-31T00:30:17;18.30;78.70
18694;DHT22;9477;51.414;10.362;2022-10-31T00:32:22;18.20;78.90
18694;DHT22;9477;51.414;10.362;2022-10-31T00:34:26;18.10;78.90
18694;DHT22;9477;51.414;10.362;2022-10-31T00:36:29;17.90;79.20
18694;DHT22;9477;51.414;10.362;2022-10-31T00:38:33;17.90;79.50
18694;DHT22;9477;51.414;10.362;2022-10-31T00:40:36;17.90;79.60
18694;DHT22;9477;51.414;10.362;2022-10-31T00:42:40;17.90;79.80
18694;DHT22;9477;51.414;10.362;2022-10-31T00:44:44;18.00;80.00
18694;DHT22;9477;51.414;10.362;2022-10-31T00:46:47;18.00;79.60
18694;DHT22;9477;51.414;10.362;2022-10-31T00:48:53;18.00;79.30
18694;DHT22;9477;51.414;10.362;2022-10-31T00:50:57;18.10;79.50
18694;DHT22;9477;51.414;10.362;2022-10-31T00:53:00;18.10;79.40
18694;DHT22;9477;51.414;10.362;2022-10-31T00:55:06;18.00;79.20
18694;DHT22;9477;51.414;10.362;2022-10-31T00:57:10;18.00;79.20
18694;DHT22;9477;51.414;10.362;2022-10-31T00:59:13;17.90;79.10
18694;DHT22;9477;51.414;10.362;2022-10-31T01:01:17;17.90;78.70
18694;DHT22;9477;51.414;10.362;2022-10-31T01:03:21;17.80;78.60
18694;DHT22;9477;51.414;10.362;2022-10-31T01:05:30;17.80;78.90
18694;DHT22;9477;51.414;10.362;2022-10-31T01:07:36;17.70;78.90
18694;DHT22;9477;51.414;10.362;2022-10-31T01:09:41;17.70;79.10
18694;DHT22;9477;51.414;10.362;2022-10-31T01:11:45;17.60;78.70
18694;DHT22;9477;51.414;10.362;2022-10-31T01:13:51;17.50;78.80
18694;DHT22;9477;51.414;10.362;2022-10-31T01:15:55;17.40;79.00
18694;DHT22;9477;51.414;10.362;2022-10-31T01:17:58;17.10;79.40
18694;DHT22;9477;51.414;10.362;2022-10-31T01:20:04;17.00;79.80
18694;DHT22;9477;51.414;10.362;2022-10-31T01:22:09;17.00;80.10
18694;DHT22;9477;51.414;10.362;2022-10-31T01:24:13;17.00;80.20
18694;DHT22;9477;51.414;10.362;2022-10-31T01:26:18;17.10;80.20
18694;DHT22;9477;51.414;10.362;2022-10-31T01:28:21;17.10;80.20
18694;DHT22;9477;51.414;10.362;2022-10-31T01:30:24;17.20;80.00
18694;DHT22;9477;51.414;10.362;2022-10-31T01:32:28;17.20;79.80
18694;DHT22;9477;51.414;10.362;2022-10-31T01:34:31;17.20;80.00
18694;DHT22;9477;51.414;10.362;2022-10-31T01:36:36;17.30;80.60
18694;DHT22;9477;51.414;10.362;2022-10-31T01:38:42;17.20;79.90
18694;DHT22;9477;51.414;10.362;2022-10-31T01:40:45;17.20;79.60
18694;DHT22;9477;51.414;10.362;2022-10-31T01:42:49;17.20;80.30
18694;DHT22;9477;51.414;10.362;2022-10-31T01:44:59;17.20;79.60
18694;DHT22;9477;51.414;10.362;2022-10-31T01:47:11;17.10;79.70
18694;DHT22;9477;51.414;10.362;2022-10-31T01:49:33;17.10;79.70
18694;DHT22;9477;51.414;10.362;2022-10-31T01:51:40;17.00;79.50
18694;DHT22;9477;51.414;10.362;2022-10-31T01:53:47;17.00;80.30
18694;DHT22;9477;51.414;10.362;2022-10-31T01:55:51;16.90;79.50
18694;DHT22;9477;51.414;10.362;2022-10-31T01:57:58;16.80;79.40
18694;DHT22;9477;51.414;10.362;2022-10-31T02:00:06;16.80;79.70
18694;DHT22;9477;51.414;10.362;2022-10-31T02:02:11;16.80;80.20
18694;DHT22;9477;51.414;10.362;2022-10-31T02:04:16;16.70;79.50
18694;DHT22;9477;51.414;10.362;2022-10-31T02:06:29;16.70;80.40
18694;DHT22;9477;51.414;10.362;2022-10-31T02:08:35;16.70;79.70
18694;DHT22;9477;51.414;10.362;2022-10-31T02:10:40;16.50;79.60
18694;DHT22;9477;51.414;10.362;2022-10-31T02:12:46;16.50;80.00
18694;DHT22;9477;51.414;10.362;2022-10-31T02:14:50;16.50;80.20
18694;DHT22;9477;51.414;10.362;2022-10-31T02:16:55;16.50;79.80
18694;DHT22;9477;51.414;10.362;2022-10-31T02:18:58;16.50;79.60
18694;DHT22;9477;51.414;10.362;2022-10-31T02:21:07;16.50;79.90
18694;DHT22;9477;51.414;10.362;2022-10-31T02:23:38;16.50;80.10
18694;DHT22;9477;51.414;10.362;2022-10-31T02:26:13;16.50;80.30
18694;DHT22;9477;51.414;10.362;2022-10-31T02:28:34;16.30;80.00
18694;DHT22;9477;51.414;10.362;2022-10-31T02:31:00;16.30;80.00
18694;DHT22;9477;51.414;10.362;2022-10-31T02:33:15;16.30;80.20
18694;DHT22;9477;51.414;10.362;2022-10-31T02:35:39;16.30;80.20
18694;DHT22;9477;51.414;10.362;2022-10-31T02:37:48;16.20;80.20
18694;DHT22;9477;51.414;10.362;2022-10-31T02:39:58;16.10;80.20
18694;DHT22;9477;51.414;10.362;2022-10-31T02:42:07;16.10;80.50
18694;DHT22;9477;51.414;10.362;2022-10-31T02:44:16;16.10;80.60
18694;DHT22;9477;51.414;10.362;2022-10-31T02:46:28;16.00;80.70
18694;DHT22;9477;51.414;10.362;2022-10-31T02:48:37;15.60;81.30
18694;DHT22;9477;51.414;10.362;2022-10-31T02:50:45;15.80;81.40
18694;DHT22;9477;51.414;10.362;2022-10-31T02:52:50;15.80;81.20
18694;DHT22;9477;51.414;10.362;2022-10-31T02:54:54;15.90;81.20
18694;DHT22;9477;51.414;10.362;2022-10-31T02:57:02;15.80;81.00
18694;DHT22;9477;51.414;10.362;2022-10-31T02:59:05;15.90;81.20
18694;DHT22;9477;51.414;10.362;2022-10-31T03:03:44;15.90;81.00
18694;DHT22;9477;51.414;10.362;2022-10-31T03:05:55;15.80;81.30
18694;DHT22;9477;51.414;10.362;2022-10-31T03:08:07;15.80;81.20
18694;DHT22;9477;51.414;10.362;2022-10-31T03:10:16;15.80;81.20
18694;DHT22;9477;51.414;10.362;2022-10-31T03:12:26;15.80;81.10
18694;DHT22;9477;51.414;10.362;2022-10-31T03:14:36;15.80;81.20
18694;DHT22;9477;51.414;10.362;2022-10-31T03:16:46;15.80;81.30
18694;DHT22;9477;51.414;10.362;2022-10-31T03:18:55;15.80;81.10
18694;DHT22;9477;51.414;10.362;2022-10-31T03:21:04;15.80;81.00
18694;DHT22;9477;51.414;10.362;2022-10-31T03:23:12;15.80;81.00
18694;DHT22;9477;51.414;10.362;2022-10-31T03:25:16;15.70;81.00
18694;DHT22;9477;51.414;10.362;2022-10-31T03:27:22;15.70;81.10
18694;DHT22;9477;51.414;10.362;2022-10-31T03:29:29;15.60;80.70
18694;DHT22;9477;51.414;10.362;2022-10-31T03:31:37;15.60;80.70
18694;DHT22;9477;51.414;10.362;2022-10-31T03:33:42;15.60;80.60
18694;DHT22;9477;51.414;10.362;2022-10-31T03:35:50;15.50;80.70
18694;DHT22;9477;51.414;10.362;2022-10-31T03:37:56;15.50;80.80
18694;DHT22;9477;51.414;10.362;2022-10-31T03:40:09;15.40;80.80
18694;DHT22;9477;51.414;10.362;2022-10-31T03:42:15;15.40;80.80
18694;DHT22;9477;51.414;10.362;2022-10-31T03:44:20;15.40;80.90
18694;DHT22;9477;51.414;10.362;2022-10-31T03:46:24;15.40;80.90
18694;DHT22;9477;51.414;10.362;2022-10-31T03:48:28;15.30;81.00
18694;DHT22;9477;51.414;10.362;2022-10-31T03:50:38;15.30;81.00
18694;DHT22;9477;51.414;10.362;2022-10-31T03:52:46;15.30;81.00
18694;DHT22;9477;51.414;10.362;2022-10-31T03:54:54;15.30;80.90
18694;DHT22;9477;51.414;10.362;2022-10-31T03:57:02;15.30;81.00
18694;DHT22;9477;51.414;10.362;2022-10-31T03:59:10;15.30;80.80
18694;DHT22;9477;51.414;10.362;2022-10-31T04:01:17;15.10;80.80
18694;DHT22;9477;51.414;10.362;2022-10-31T04:03:24;15.10;81.00
18694;DHT22;9477;51.414;10.362;2022-10-31T04:05:28;15.10;81.00
18694;DHT22;9477;51.414;10.362;2022-10-31T04:07:37;15.20;81.10
18694;DHT22;9477;51.414;10.362;2022-10-31T04:09:44;15.10;81.00
18694;DHT22;9477;51.414;10.362;2022-10-31T04:11:51;15.10;81.30
18694;DHT22;9477;51.414;10.362;2022-10-31T04:13:56;14.90;81.70
18694;DHT22;9477;51.414;10.362;2022-10-31T04:16:00;14.80;81.90
18694;DHT22;9477;51.414;10.362;2022-10-31T04:18:05;14.90;82.10
18694;DHT22;9477;51.414;10.362;2022-10-31T04:20:08;14.90;81.90
18694;DHT22;9477;51.414;10.362;2022-10-31T04:22:12;15.00;82.00
18694;DHT22;9477;51.414;10.362;2022-10-31T04:24:15;15.00;81.70
18694;DHT22;9477;51.414;10.362;2022-10-31T04:26:19;14.90;81.50
18694;DHT22;9477;51.414;10.362;2022-10-31T04:28:22;14.90;81.70
18694;DHT22;9477;51.414;10.362;2022-10-31T04:30:25;14.90;81.50
18694;DHT22;9477;51.414;10.362;2022-10-31T04:32:28;14.90;81.70
18694;DHT22;9477;51.414;10.362;2022-10-31T04:34:31;14.90;81.40
18694;DHT22;9477;51.414;10.362;2022-10-31T04:36:34;14.90;81.40
18694;DHT22;9477;51.414;10.362;2022-10-31T04:38:37;14.90;81.50
18694;DHT22;9477;51.414;10.362;2022-10-31T04:40:39;14.90;81.70
18694;DHT22;9477;51.414;10.362;2022-10-31T04:42:44;14.90;81.90
18694;DHT22;9477;51.414;10.362;2022-10-31T04:44:47;14.90;81.80
18694;DHT22;9477;51.414;10.362;2022-10-31T04:46:50;14.90;81.60
18694;DHT22;9477;51.414;10.362;2022-10-31T04:48:53;14.80;81.60
18694;DHT22;9477;51.414;10.362;2022-10-31T04:50:59;14.70;81.90
18694;DHT22;9477;51.414;10.362;2022-10-31T04:53:02;14.40;82.70
18694;DHT22;9477;51.414;10.362;2022-10-31T04:55:05;14.40;82.90
18694;DHT22;9477;51.414;10.362;2022-10-31T04:57:08;14.50;83.00
18694;DHT22;9477;51.414;10.362;2022-10-31T04:59:13;14.60;82.70
18694;DHT22;9477;51.414;10.362;2022-10-31T05:01:15;14.60;82.60
18694;DHT22;9477;51.414;10.362;2022-10-31T05:03:19;14.60;82.40
18694;DHT22;9477;51.414;10.362;2022-10-31T05:05:24;14.60;82.20
18694;DHT22;9477;51.414;10.362;2022-10-31T05:07:27;14.60;82.20
18694;DHT22;9477;51.414;10.362;2022-10-31T05:09:30;14.60;81.90
18694;DHT22;9477;51.414;10.362;2022-10-31T05:11:33;14.60;81.90
18694;DHT22;9477;51.414;10.362;2022-10-31T05:13:36;14.60;81.80
18694;DHT22;9477;51.414;10.362;2022-10-31T05:15:40;14.40;82.50
18694;DHT22;9477;51.414;10.362;2022-10-31T05:17:43;14.30;83.00
18694;DHT22;9477;51.414;10.362;2022-10-31T05:19:46;14.20;83.50
18694;DHT22;9477;51.414;10.362;2022-10-31T05:21:49;14.20;83.50
18694;DHT22;9477;51.414;10.362;2022-10-31T05:23:52;14.30;83.40
18694;DHT22;9477;51.414;10.362;2022-10-31T05:25:54;14.30;83.00
18694;DHT22;9477;51.414;10.362;2022-10-31T05:27:57;14.30;82.90
18694;DHT22;9477;51.414;10.362;2022-10-31T05:30:01;14.40;83.00
18694;DHT22;9477;51.414;10.362;2022-10-31T05:32:05;14.40;82.90
18694;DHT22;9477;51.414;10.362;2022-10-31T05:34:08;14.30;83.00
18694;DHT22;9477;51.414;10.362;2022-10-31T05:36:11;14.20;83.70
18694;DHT22;9477;51.414;10.362;2022-10-31T05:38:14;14.20;83.70
18694;DHT22;9477;51.414;10.362;2022-10-31T05:40:18;14.30;83.50
18694;DHT22;9477;51.414;10.362;2022-10-31T05:42:21;14.30;83.00
18694;DHT22;9477;51.414;10.362;2022-10-31T05:44:24;14.30;82.80
18694;DHT22;9477;51.414;10.362;2022-10-31T05:46:27;14.20;83.10
18694;DHT22;9477;51.414;10.362;2022-10-31T05:48:31;14.20;83.30
18694;DHT22;9477;51.414;10.362;2022-10-31T05:50:34;14.20;83.60
18694;DHT22;9477;51.414;10.362;2022-10-31T05:52:37;14.20;83.60
18694;DHT22;9477;51.414;10.362;2022-10-31T05:54:40;14.30;83.40
18694;DHT22;9477;51.414;10.362;2022-10-31T05:56:42;14.30;83.10
18694;DHT22;9477;51.414;10.362;2022-10-31T05:58:45;14.30;83.00
18694;DHT22;9477;51.414;10.362;2022-10-31T06:00:48;14.20;82.90
18694;DHT22;9477;51.414;10.362;2022-10-31T06:02:57;14.20;82.80
18694;DHT22;9477;51.414;10.362;2022-10-31T06:05:02;14.20;82.80
18694;DHT22;9477;51.414;10.362;2022-10-31T06:07:05;14.20;82.80
18694;DHT22;9477;51.414;10.362;2022-10-31T06:09:08;14.20;82.80
18694;DHT22;9477;51.414;10.362;2022-10-31T06:11:11;14.20;82.60
18694;DHT22;9477;51.414;10.362;2022-10-31T06:13:14;14.20;82.50
18694;DHT22;9477;51.414;10.362;2022-10-31T06:15:17;14.20;82.40
18694;DHT22;9477;51.414;10.362;2022-10-31T06:17:25;14.20;82.30
18694;DHT22;9477;51.414;10.362;2022-10-31T06:19:28;14.20;82.20
18694;DHT22;9477;51.414;10.362;2022-10-31T06:21:32;14.10;82.20
18694;DHT22;9477;51.414;10.362;2022-10-31T06:23:35;14.10;82.30
18694;DHT22;9477;51.414;10.362;2022-10-31T06:25:38;14.20;82.30
18694;DHT22;9477;51.414;10.362;2022-10-31T06:27:41;14.20;82.20
18694;DHT22;9477;51.414;10.362;2022-10-31T06:29:44;14.20;82.10
18694;DHT22;9477;51.414;10.362;2022-10-31T06:31:49;14.10;82.20
18694;DHT22;9477;51.414;10.362;2022-10-31T06:33:53;14.10;82.50
18694;DHT22;9477;51.414;10.362;2022-10-31T06:35:56;14.00;82.80
18694;DHT22;9477;51.414;10.362;2022-10-31T06:38:00;14.00;83.30
18694;DHT22;9477;51.414;10.362;2022-10-31T06:40:05;13.90;83.70
18694;DHT22;9477;51.414;10.362;2022-10-31T06:42:08;13.80;84.20
18694;DHT22;9477;51.414;10.362;2022-10-31T06:44:11;13.90;84.40
18694;DHT22;9477;51.414;10.362;2022-10-31T06:46:13;13.90;84.50
18694;DHT22;9477;51.414;10.362;2022-10-31T06:48:16;14.00;84.40
18694;DHT22;9477;51.414;10.362;2022-10-31T06:50:20;14.20;84.50
18694;DHT22;9477;51.414;10.362;2022-10-31T06:52:23;14.20;84.30
18694;DHT22;9477;51.414;10.362;2022-10-31T06:54:28;14.30;84.10
18694;DHT22;9477;51.414;10.362;2022-10-31T06:56:31;14.30;83.90
18694;DHT22;9477;51.414;10.362;2022-10-31T06:58:34;14.30;84.00
18694;DHT22;9477;51.414;10.362;2022-10-31T07:00:36;14.30;84.50
18694;DHT22;9477;51.414;10.362;2022-10-31T07:02:39;14.40;84.80
18694;DHT22;9477;51.414;10.362;2022-10-31T07:04:42;14.50;84.90
18694;DHT22;9477;51.414;10.362;2022-10-31T07:06:45;14.50;84.70
18694;DHT22;9477;51.414;10.362;2022-10-31T07:08:52;14.60;84.60
18694;DHT22;9477;51.414;10.362;2022-10-31T07:10:57;14.60;84.50
18694;DHT22;9477;51.414;10.362;2022-10-31T07:13:01;14.60;84.40
18694;DHT22;9477;51.414;10.362;2022-10-31T07:15:06;14.70;84.50
18694;DHT22;9477;51.414;10.362;2022-10-31T07:17:09;14.70;84.50
18694;DHT22;9477;51.414;10.362;2022-10-31T07:19:12;14.70;84.40
18694;DHT22;9477;51.414;10.362;2022-10-31T07:21:15;14.80;84.40
18694;DHT22;9477;51.414;10.362;2022-10-31T07:23:18;14.80;84.40
18694;DHT22;9477;51.414;10.362;2022-10-31T07:25:21;14.90;84.50
18694;DHT22;9477;51.414;10.362;2022-10-31T07:27:25;15.00;84.60
18694;DHT22;9477;51.414;10.362;2022-10-31T07:29:28;15.00;84.60
18694;DHT22;9477;51.414;10.362;2022-10-31T07:31:31;15.10;84.60
18694;DHT22;9477;51.414;10.362;2022-10-31T07:33:34;15.20;84.50
18694;DHT22;9477;51.414;10.362;2022-10-31T07:35:36;15.20;84.30
18694;DHT22;9477;51.414;10.362;2022-10-31T07:37:39;15.30;84.40
18694;DHT22;9477;51.414;10.362;2022-10-31T07:39:42;15.40;84.50
18694;DHT22;9477;51.414;10.362;2022-10-31T07:41:45;15.50;84.50
18694;DHT22;9477;51.414;10.362;2022-10-31T07:43:49;15.50;84.60
18694;DHT22;9477;51.414;10.362;2022-10-31T07:45:57;15.60;84.80
18694;DHT22;9477;51.414;10.362;2022-10-31T07:48:00;15.60;84.70
18694;DHT22;9477;51.414;10.362;2022-10-31T07:50:04;15.70;84.90
18694;DHT22;9477;51.414;10.362;2022-10-31T07:52:07;15.70;85.00
18694;DHT22;9477;51.414;10.362;2022-10-31T07:54:11;15.80;85.20
18694;DHT22;9477;51.414;10.362;2022-10-31T07:56:14;15.90;85.50
18694;DHT22;9477;51.414;10.362;2022-10-31T07:58:17;15.90;85.50
18694;DHT22;9477;51.414;10.362;2022-10-31T08:00:21;16.00;85.80
18694;DHT22;9477;51.414;10.362;2022-10-31T08:02:25;16.10;86.20
18694;DHT22;9477;51.414;10.362;2022-10-31T08:04:28;16.20;86.20
18694;DHT22;9477;51.414;10.362;2022-10-31T08:06:31;16.30;86.10
18694;DHT22;9477;51.414;10.362;2022-10-31T08:08:35;16.30;86.20
18694;DHT22;9477;51.414;10.362;2022-10-31T08:10:39;16.40;86.30
18694;DHT22;9477;51.414;10.362;2022-10-31T08:12:42;16.50;86.40
18694;DHT22;9477;51.414;10.362;2022-10-31T08:14:45;16.50;86.30
18694;DHT22;9477;51.414;10.362;2022-10-31T08:16:49;16.60;86.60
18694;DHT22;9477;51.414;10.362;2022-10-31T08:18:52;16.60;86.60
18694;DHT22;9477;51.414;10.362;2022-10-31T08:20:57;16.70;86.60
18694;DHT22;9477;51.414;10.362;2022-10-31T08:23:02;16.70;86.40
18694;DHT22;9477;51.414;10.362;2022-10-31T08:25:05;16.70;86.60
18694;DHT22;9477;51.414;10.362;2022-10-31T08:27:09;16.70;86.70
18694;DHT22;9477;51.414;10.362;2022-10-31T08:29:12;16.70;86.60
18694;DHT22;9477;51.414;10.362;2022-10-31T08:31:16;16.80;86.60
18694;DHT22;9477;51.414;10.362;2022-10-31T08:33:20;16.80;86.40
18694;DHT22;9477;51.414;10.362;2022-10-31T08:35:23;16.80;86.40
18694;DHT22;9477;51.414;10.362;2022-10-31T08:37:26;16.80;86.60
18694;DHT22;9477;51.414;10.362;2022-10-31T08:39:29;16.80;86.60
18694;DHT22;9477;51.414;10.362;2022-10-31T08:41:32;16.90;86.90
18694;DHT22;9477;51.414;10.362;2022-10-31T08:43:35;16.90;87.10
18694;DHT22;9477;51.414;10.362;2022-10-31T08:45:38;16.90;86.90
18694;DHT22;9477;51.414;10.362;2022-10-31T08:47:41;17.00;87.00
18694;DHT22;9477;51.414;10.362;2022-10-31T08:49:46;17.00;86.90
18694;DHT22;9477;51.414;10.362;2022-10-31T08:51:49;17.10;87.00
18694;DHT22;9477;51.414;10.362;2022-10-31T08:53:52;17.10;86.90
18694;DHT22;9477;51.414;10.362;2022-10-31T08:55:55;17.20;86.70
18694;DHT22;9477;51.414;10.362;2022-10-31T08:57:58;17.20;86.80
18694;DHT22;9477;51.414;10.362;2022-10-31T09:00:02;17.20;86.70
18694;DHT22;9477;51.414;10.362;2022-10-31T09:02:07;17.20;86.90
18694;DHT22;9477;51.414;10.362;2022-10-31T09:04:10;17.20;86.80
18694;DHT22;9477;51.414;10.362;2022-10-31T09:06:14;17.30;87.00
18694;DHT22;9477;51.414;10.362;2022-10-31T09:08:18;17.30;86.80
18694;DHT22;9477;51.414;10.362;2022-10-31T09:10:21;17.30;86.90
18694;DHT22;9477;51.414;10.362;2022-10-31T09:12:24;17.30;86.90
18694;DHT22;9477;51.414;10.362;2022-10-31T09:14:27;17.40;87.10
18694;DHT22;9477;51.414;10.362;2022-10-31T09:16:30;17.40;87.20
18694;DHT22;9477;51.414;10.362;2022-10-31T09:18:33;17.40;87.90
18694;DHT22;9477;51.414;10.362;2022-10-31T09:20:37;17.40;87.30
18694;DHT22;9477;51.414;10.362;2022-10-31T09:22:42;17.50;87.40
18694;DHT22;9477;51.414;10.362;2022-10-31T09:24:45;17.60;87.40
18694;DHT22;9477;51.414;10.362;2022-10-31T09:26:47;17.60;87.40
18694;DHT22;9477;51.414;10.362;2022-10-31T09:28:50;17.70;87.50
18694;DHT22;9477;51.414;10.362;2022-10-31T09:30:54;17.70;87.40
18694;DHT22;9477;51.414;10.362;2022-10-31T09:32:58;17.90;87.60
18694;DHT22;9477;51.414;10.362;2022-10-31T09:35:01;17.90;87.40
18694;DHT22;9477;51.414;10.362;2022-10-31T09:37:04;18.00;87.20
18694;DHT22;9477;51.414;10.362;2022-10-31T09:39:08;18.10;87.30
18694;DHT22;9477;51.414;10.362;2022-10-31T09:41:19;18.20;87.40
18694;DHT22;9477;51.414;10.362;2022-10-31T09:43:30;18.20;87.40
18694;DHT22;9477;51.414;10.362;2022-10-31T09:45:39;18.30;87.20
18694;DHT22;9477;51.414;10.362;2022-10-31T09:47:56;18.30;87.30
18694;DHT22;9477;51.414;10.362;2022-10-31T09:50:13;18.40;87.50
18694;DHT22;9477;51.414;10.362;2022-10-31T09:52:20;18.40;87.40
18694;DHT22;9477;51.414;10.362;2022-10-31T09:54:28;18.60;87.60
18694;DHT22;9477;51.414;10.362;2022-10-31T09:56:32;18.60;87.50
18694;DHT22;9477;51.414;10.362;2022-10-31T09:58:42;18.70;87.50
18694;DHT22;9477;51.414;10.362;2022-10-31T10:00:46;18.70;87.70
18694;DHT22;9477;51.414;10.362;2022-10-31T10:02:56;18.70;87.50
18694;DHT22;9477;51.414;10.362;2022-10-31T10:05:02;18.70;87.30
18694;DHT22;9477;51.414;10.362;2022-10-31T10:07:14;18.70;87.60
18694;DHT22;9477;51.414;10.362;2022-10-31T10:09:24;18.80;87.80
18694;DHT22;9477;51.414;10.362;2022-10-31T10:11:36;18.80;87.60
18694;DHT22;9477;51.414;10.362;2022-10-31T10:13:55;18.80;87.70
18694;DHT22;9477;51.414;10.362;2022-10-31T10:16:13;18.80;87.70
18694;DHT22;9477;51.414;10.362;2022-10-31T10:18:27;18.80;87.80
18694;DHT22;9477;51.414;10.362;2022-10-31T10:20:35;18.80;87.80
18694;DHT22;9477;51.414;10.362;2022-10-31T10:22:45;18.80;87.50
18694;DHT22;9477;51.414;10.362;2022-10-31T10:24:59;18.90;87.60
18694;DHT22;9477;51.414;10.362;2022-10-31T10:27:17;18.90;87.60
18694;DHT22;9477;51.414;10.362;2022-10-31T10:29:33;18.90;87.60
18694;DHT22;9477;51.414;10.362;2022-10-31T10:31:41;18.90;87.50
18694;DHT22;9477;51.414;10.362;2022-10-31T10:33:56;19.00;87.60
18694;DHT22;9477;51.414;10.362;2022-10-31T10:36:04;19.00;87.60
18694;DHT22;9477;51.414;10.362;2022-10-31T10:38:15;19.00;87.60
18694;DHT22;9477;51.414;10.362;2022-10-31T10:40:24;19.10;87.70
18694;DHT22;9477;51.414;10.362;2022-10-31T10:42:33;19.10;87.70
18694;DHT22;9477;51.414;10.362;2022-10-31T10:44:55;19.10;87.60
18694;DHT22;9477;51.414;10.362;2022-10-31T10:47:15;19.10;87.80
18694;DHT22;9477;51.414;10.362;2022-10-31T10:49:40;19.20;88.00
18694;DHT22;9477;51.414;10.362;2022-10-31T10:51:47;19.20;87.90
18694;DHT22;9477;51.414;10.362;2022-10-31T10:54:59;19.30;88.00
18694;DHT22;9477;51.414;10.362;2022-10-31T10:57:37;19.30;88.00
18694;DHT22;9477;51.414;10.362;2022-10-31T10:59:41;19.40;88.20
18694;DHT22;9477;51.414;10.362;2022-10-31T11:01:45;19.50;88.10
18694;DHT22;9477;51.414;10.362;2022-10-31T11:03:48;19.60;88.30
18694;DHT22;9477;51.414;10.362;2022-10-31T11:05:52;19.60;88.20
18694;DHT22;9477;51.414;10.362;2022-10-31T11:08:00;19.60;88.40
18694;DHT22;9477;51.414;10.362;2022-10-31T11:10:05;19.70;88.70
18694;DHT22;9477;51.414;10.362;2022-10-31T11:12:21;19.80;88.80
18694;DHT22;9477;51.414;10.362;2022-10-31T11:14:26;19.80;88.80
18694;DHT22;9477;51.414;10.362;2022-10-31T11:16:35;19.90;89.10
18694;DHT22;9477;51.414;10.362;2022-10-31T11:18:44;19.90;89.10
18694;DHT22;9477;51.414;10.362;2022-10-31T11:20:51;19.90;89.00
18694;DHT22;9477;51.414;10.362;2022-10-31T11:23:03;20.10;89.10
18694;DHT22;9477;51.414;10.362;2022-10-31T11:25:20;20.10;89.10
18694;DHT22;9477;51.414;10.362;2022-10-31T11:27:25;20.20;89.00
18694;DHT22;9477;51.414;10.362;2022-10-31T11:29:30;20.30;89.10
18694;DHT22;9477;51.414;10.362;2022-10-31T11:31:34;20.40;89.00
18694;DHT22;9477;51.414;10.362;2022-10-31T11:33:44;20.50;88.90
18694;DHT22;9477;51.414;10.362;2022-10-31T11:35:48;20.50;88.90
18694;DHT22;9477;51.414;10.362;2022-10-31T11:37:58;20.60;89.10
18694;DHT22;9477;51.414;10.362;2022-10-31T11:40:06;20.60;88.90
18694;DHT22;9477;51.414;10.362;2022-10-31T11:42:09;20.70;88.70
18694;DHT22;9477;51.414;10.362;2022-10-31T11:44:16;20.70;88.40
18694;DHT22;9477;51.414;10.362;2022-10-31T11:46:27;20.80;88.50
18694;DHT22;9477;51.414;10.362;2022-10-31T11:48:31;20.90;88.40
18694;DHT22;9477;51.414;10.362;2022-10-31T11:50:38;20.90;88.00
18694;DHT22;9477;51.414;10.362;2022-10-31T11:52:41;20.90;88.20
18694;DHT22;9477;51.414;10.362;2022-10-31T11:54:48;21.00;88.10
18694;DHT22;9477;51.414;10.362;2022-10-31T11:56:52;21.00;88.10
18694;DHT22;9477;51.414;10.362;2022-10-31T11:58:56;21.10;88.20
18694;DHT22;9477;51.414;10.362;2022-10-31T12:00:59;21.20;88.00
18694;DHT22;9477;51.414;10.362;2022-10-31T12:03:25;21.20;87.80
18694;DHT22;9477;51.414;10.362;2022-10-31T12:05:30;21.30;87.70
18694;DHT22;9477;51.414;10.362;2022-10-31T12:07:34;21.30;87.60
18694;DHT22;9477;51.414;10.362;2022-10-31T12:09:38;21.30;87.20
18694;DHT22;9477;51.414;10.362;2022-10-31T12:11:49;21.30;87.20
18694;DHT22;9477;51.414;10.362;2022-10-31T12:14:08;21.30;87.10
18694;DHT22;9477;51.414;10.362;2022-10-31T12:16:18;21.40;87.30
18694;DHT22;9477;51.414;10.362;2022-10-31T12:18:32;21.50;87.20
18694;DHT22;9477;51.414;10.362;2022-10-31T12:20:48;21.50;87.00
18694;DHT22;9477;51.414;10.362;2022-10-31T12:23:01;21.60;87.20
18694;DHT22;9477;51.414;10.362;2022-10-31T12:25:19;21.60;87.20
18694;DHT22;9477;51.414;10.362;2022-10-31T12:27:32;21.70;87.10
18694;DHT22;9477;51.414;10.362;2022-10-31T12:29:55;21.80;87.10
18694;DHT22;9477;51.414;10.362;2022-10-31T12:32:15;21.90;86.70
18694;DHT22;9477;51.414;10.362;2022-10-31T12:34:36;22.00;86.40
18694;DHT22;9477;51.414;10.362;2022-10-31T12:36:55;22.10;86.50
18694;DHT22;9477;51.414;10.362;2022-10-31T12:39:29;22.20;86.60
18694;DHT22;9477;51.414;10.362;2022-10-31T12:41:45;22.30;86.30
18694;DHT22;9477;51.414;10.362;2022-10-31T12:43:55;22.30;85.90
18694;DHT22;9477;51.414;10.362;2022-10-31T12:45:59;22.30;86.00
18694;DHT22;9477;51.414;10.362;2022-10-31T12:48:23;22.30;85.40
18694;DHT22;9477;51.414;10.362;2022-10-31T12:50:51;22.30;85.50
18694;DHT22;9477;51.414;10.362;2022-10-31T12:53:09;22.30;85.30
18694;DHT22;9477;51.414;10.362;2022-10-31T12:55:30;22.30;85.50
18694;DHT22;9477;51.414;10.362;2022-10-31T12:57:37;22.40;85.60
18694;DHT22;9477;51.414;10.362;2022-10-31T12:59:44;22.20;85.20
18694;DHT22;9477;51.414;10.362;2022-10-31T13:01:53;22.30;85.30
18694;DHT22;9477;51.414;10.362;2022-10-31T13:04:01;22.40;85.30
18694;DHT22;9477;51.414;10.362;2022-10-31T13:06:09;22.40;85.00
18694;DHT22;9477;51.414;10.362;2022-10-31T13:08:17;22.40;85.30
18694;DHT22;9477;51.414;10.362;2022-10-31T13:10:25;22.80;84.10
18694;DHT22;9477;51.414;10.362;2022-10-31T13:12:33;23.00;83.40
18694;DHT22;9477;51.414;10.362;2022-10-31T13:14:40;23.20;83.50
18694;DHT22;9477;51.414;10.362;2022-10-31T13:16:47;23.30;83.70
18694;DHT22;9477;51.414;10.362;2022-10-31T13:18:54;23.30;83.30
18694;DHT22;9477;51.414;10.362;2022-10-31T13:20:59;23.40;83.20
18694;DHT22;9477;51.414;10.362;2022-10-31T13:23:11;23.40;83.00